sensor_id;sensor_type;location;lat;lon;timestamp;temperature;humidity
65876;HTU21D;52657;51.128;5.938;2022-08-05T00:01:02;24.26;63.47
65876;HTU21D;52657;51.128;5.938;2022-08-05T00:03:27;24.14;63.81
65876;HTU21D;52657;51.128;5.938;2022-08-05T00:05:53;24.09;63.96
65876;HTU21D;52657;51.128;5.938;2022-08-05T00:08:19;24.01;64.04
65876;HTU21D;52657;51.128;5.938;2022-08-05T00:10:45;23.98;64.34
65876;HTU21D;52657;51.128;5.938;2022-08-05T00:13:11;24.04;64.33
65876;HTU21D;52657;51.128;5.938;2022-08-05T00:15:36;24.12;63.97
65876;HTU21D;52657;51.128;5.938;2022-08-05T00:18:02;24.01;64.15
65876;HTU21D;52657;51.128;5.938;2022-08-05T00:20:28;23.91;64.60
65876;HTU21D;52657;51.128;5.938;2022-08-05T00:22:54;23.94;64.60
65876;HTU21D;52657;51.128;5.938;2022-08-05T00:25:21;23.95;64.54
65876;HTU21D;52657;51.128;5.938;2022-08-05T00:27:46;23.96;64.34
65876;HTU21D;52657;51.128;5.938;2022-08-05T00:30:12;23.91;64.37
65876;HTU21D;52657;51.128;5.938;2022-08-05T00:32:38;23.82;64.85
65876;HTU21D;52657;51.128;5.938;2022-08-05T00:35:04;23.80;65.08
65876;HTU21D;52657;51.128;5.938;2022-08-05T00:37:29;23.80;65.04
65876;HTU21D;52657;51.128;5.938;2022-08-05T00:39:55;23.76;65.01
65876;HTU21D;52657;51.128;5.938;2022-08-05T00:42:33;23.61;65.47
65876;HTU21D;52657;51.128;5.938;2022-08-05T00:45:00;23.54;65.75
65876;HTU21D;52657;51.128;5.938;2022-08-05T00:47:26;23.49;65.88
65876;HTU21D;52657;51.128;5.938;2022-08-05T00:49:52;23.43;66.01
65876;HTU21D;52657;51.128;5.938;2022-08-05T00:52:18;23.45;66.36
65876;HTU21D;52657;51.128;5.938;2022-08-05T00:54:44;23.54;66.04
65876;HTU21D;52657;51.128;5.938;2022-08-05T00:57:10;23.57;65.91
65876;HTU21D;52657;51.128;5.938;2022-08-05T00:59:36;23.55;65.78
65876;HTU21D;52657;51.128;5.938;2022-08-05T01:02:03;23.46;66.04
65876;HTU21D;52657;51.128;5.938;2022-08-05T01:04:28;23.44;66.30
65876;HTU21D;52657;51.128;5.938;2022-08-05T01:06:57;23.45;66.21
65876;HTU21D;52657;51.128;5.938;2022-08-05T01:09:23;23.47;66.28
65876;HTU21D;52657;51.128;5.938;2022-08-05T01:11:51;23.56;66.11
65876;HTU21D;52657;51.128;5.938;2022-08-05T01:14:46;23.57;65.98
65876;HTU21D;52657;51.128;5.938;2022-08-05T01:17:22;23.60;66.07
65876;HTU21D;52657;51.128;5.938;2022-08-05T01:19:54;23.70;65.96
65876;HTU21D;52657;51.128;5.938;2022-08-05T01:22:41;23.77;65.65
65876;HTU21D;52657;51.128;5.938;2022-08-05T01:28:05;23.80;65.47
65876;HTU21D;52657;51.128;5.938;2022-08-05T01:30:37;23.83;65.48
65876;HTU21D;52657;51.128;5.938;2022-08-05T01:33:10;23.87;65.47
65876;HTU21D;52657;51.128;5.938;2022-08-05T01:35:42;23.90;65.19
65876;HTU21D;52657;51.128;5.938;2022-08-05T01:38:11;23.89;65.40
65876;HTU21D;52657;51.128;5.938;2022-08-05T01:40:39;23.88;65.65
65876;HTU21D;52657;51.128;5.938;2022-08-05T01:43:06;23.88;65.82
65876;HTU21D;52657;51.128;5.938;2022-08-05T01:45:34;23.89;65.98
65876;HTU21D;52657;51.128;5.938;2022-08-05T01:48:02;23.95;65.97
65876;HTU21D;52657;51.128;5.938;2022-08-05T01:50:34;23.98;65.66
65876;HTU21D;52657;51.128;5.938;2022-08-05T01:53:11;24.01;65.74
65876;HTU21D;52657;51.128;5.938;2022-08-05T01:55:39;24.04;65.62
65876;HTU21D;52657;51.128;5.938;2022-08-05T01:58:08;24.03;65.55
65876;HTU21D;52657;51.128;5.938;2022-08-05T02:00:38;23.94;65.71
65876;HTU21D;52657;51.128;5.938;2022-08-05T02:03:15;23.83;66.06
65876;HTU21D;52657;51.128;5.938;2022-08-05T02:05:43;23.73;66.40
65876;HTU21D;52657;51.128;5.938;2022-08-05T02:08:10;23.68;66.49
65876;HTU21D;52657;51.128;5.938;2022-08-05T02:10:43;23.55;66.39
65876;HTU21D;52657;51.128;5.938;2022-08-05T02:13:26;23.37;67.00
65876;HTU21D;52657;51.128;5.938;2022-08-05T02:16:13;23.18;67.52
65876;HTU21D;52657;51.128;5.938;2022-08-05T02:18:49;22.95;68.40
65876;HTU21D;52657;51.128;5.938;2022-08-05T02:21:18;22.86;69.13
65876;HTU21D;52657;51.128;5.938;2022-08-05T02:23:49;22.79;69.64
65876;HTU21D;52657;51.128;5.938;2022-08-05T02:26:22;22.75;70.02
65876;HTU21D;52657;51.128;5.938;2022-08-05T02:28:49;22.73;70.49
65876;HTU21D;52657;51.128;5.938;2022-08-05T02:31:21;22.82;70.58
65876;HTU21D;52657;51.128;5.938;2022-08-05T02:33:51;22.95;70.15
65876;HTU21D;52657;51.128;5.938;2022-08-05T02:36:23;23.08;69.68
65876;HTU21D;52657;51.128;5.938;2022-08-05T02:38:54;23.16;69.36
65876;HTU21D;52657;51.128;5.938;2022-08-05T02:41:24;23.24;69.16
65876;HTU21D;52657;51.128;5.938;2022-08-05T02:43:51;23.31;68.93
65876;HTU21D;52657;51.128;5.938;2022-08-05T02:46:22;23.37;68.63
65876;HTU21D;52657;51.128;5.938;2022-08-05T02:48:51;23.35;68.24
65876;HTU21D;52657;51.128;5.938;2022-08-05T02:51:18;23.31;68.44
65876;HTU21D;52657;51.128;5.938;2022-08-05T02:53:44;23.32;68.42
65876;HTU21D;52657;51.128;5.938;2022-08-05T02:56:12;23.30;68.23
65876;HTU21D;52657;51.128;5.938;2022-08-05T02:58:39;23.26;68.79
65876;HTU21D;52657;51.128;5.938;2022-08-05T03:01:08;23.27;68.64
65876;HTU21D;52657;51.128;5.938;2022-08-05T03:03:39;23.30;68.78
65876;HTU21D;52657;51.128;5.938;2022-08-05T03:06:08;23.32;68.71
65876;HTU21D;52657;51.128;5.938;2022-08-05T03:08:36;23.35;68.65
65876;HTU21D;52657;51.128;5.938;2022-08-05T03:11:02;23.39;68.63
65876;HTU21D;52657;51.128;5.938;2022-08-05T03:13:28;23.39;68.52
65876;HTU21D;52657;51.128;5.938;2022-08-05T03:15:55;23.42;68.50
65876;HTU21D;52657;51.128;5.938;2022-08-05T03:18:20;23.39;68.30
65876;HTU21D;52657;51.128;5.938;2022-08-05T03:20:46;23.36;68.53
65876;HTU21D;52657;51.128;5.938;2022-08-05T03:23:12;23.37;68.47
65876;HTU21D;52657;51.128;5.938;2022-08-05T03:25:39;23.39;68.58
65876;HTU21D;52657;51.128;5.938;2022-08-05T03:28:07;23.42;68.28
65876;HTU21D;52657;51.128;5.938;2022-08-05T03:30:34;23.40;68.39
65876;HTU21D;52657;51.128;5.938;2022-08-05T03:33:03;23.43;68.34
65876;HTU21D;52657;51.128;5.938;2022-08-05T03:35:30;23.32;68.29
65876;HTU21D;52657;51.128;5.938;2022-08-05T03:37:58;23.22;68.69
65876;HTU21D;52657;51.128;5.938;2022-08-05T03:40:24;23.23;68.81
65876;HTU21D;52657;51.128;5.938;2022-08-05T03:42:50;23.29;68.94
65876;HTU21D;52657;51.128;5.938;2022-08-05T03:45:16;23.31;68.88
65876;HTU21D;52657;51.128;5.938;2022-08-05T03:47:42;23.32;68.71
65876;HTU21D;52657;51.128;5.938;2022-08-05T03:50:08;23.25;69.16
65876;HTU21D;52657;51.128;5.938;2022-08-05T03:52:53;23.25;69.14
65876;HTU21D;52657;51.128;5.938;2022-08-05T03:55:31;23.29;69.14
65876;HTU21D;52657;51.128;5.938;2022-08-05T03:58:00;23.34;68.99
65876;HTU21D;52657;51.128;5.938;2022-08-05T04:00:28;23.37;68.74
65876;HTU21D;52657;51.128;5.938;2022-08-05T04:03:02;23.25;68.84
65876;HTU21D;52657;51.128;5.938;2022-08-05T04:05:32;23.17;69.44
65876;HTU21D;52657;51.128;5.938;2022-08-05T04:08:00;23.14;69.75
65876;HTU21D;52657;51.128;5.938;2022-08-05T04:10:27;23.16;69.58
65876;HTU21D;52657;51.128;5.938;2022-08-05T04:12:53;23.14;69.37
65876;HTU21D;52657;51.128;5.938;2022-08-05T04:15:20;23.14;69.48
65876;HTU21D;52657;51.128;5.938;2022-08-05T04:17:46;23.06;69.83
65876;HTU21D;52657;51.128;5.938;2022-08-05T04:20:21;22.99;70.06
65876;HTU21D;52657;51.128;5.938;2022-08-05T04:22:47;22.93;70.38
65876;HTU21D;52657;51.128;5.938;2022-08-05T04:25:13;22.92;70.43
65876;HTU21D;52657;51.128;5.938;2022-08-05T04:27:38;22.87;70.64
65876;HTU21D;52657;51.128;5.938;2022-08-05T04:30:05;22.90;70.83
65876;HTU21D;52657;51.128;5.938;2022-08-05T04:32:31;22.94;70.82
65876;HTU21D;52657;51.128;5.938;2022-08-05T04:34:57;22.97;70.75
65876;HTU21D;52657;51.128;5.938;2022-08-05T04:37:23;23.05;70.52
65876;HTU21D;52657;51.128;5.938;2022-08-05T04:39:48;23.08;70.37
65876;HTU21D;52657;51.128;5.938;2022-08-05T04:42:14;23.14;70.19
65876;HTU21D;52657;51.128;5.938;2022-08-05T04:44:40;23.15;69.87
65876;HTU21D;52657;51.128;5.938;2022-08-05T04:47:06;23.09;70.28
65876;HTU21D;52657;51.128;5.938;2022-08-05T04:49:32;23.08;70.06
65876;HTU21D;52657;51.128;5.938;2022-08-05T04:51:58;23.05;70.15
65876;HTU21D;52657;51.128;5.938;2022-08-05T04:54:24;22.92;70.11
65876;HTU21D;52657;51.128;5.938;2022-08-05T04:56:53;22.82;70.80
65876;HTU21D;52657;51.128;5.938;2022-08-05T04:59:19;22.77;70.83
65876;HTU21D;52657;51.128;5.938;2022-08-05T05:01:47;22.67;71.22
65876;HTU21D;52657;51.128;5.938;2022-08-05T05:04:14;22.61;71.38
65876;HTU21D;52657;51.128;5.938;2022-08-05T05:06:40;22.50;71.87
65876;HTU21D;52657;51.128;5.938;2022-08-05T05:09:05;22.43;71.95
65876;HTU21D;52657;51.128;5.938;2022-08-05T05:11:31;22.49;72.03
65876;HTU21D;52657;51.128;5.938;2022-08-05T05:13:57;22.53;71.66
65876;HTU21D;52657;51.128;5.938;2022-08-05T05:16:22;22.58;71.03
65876;HTU21D;52657;51.128;5.938;2022-08-05T05:18:48;22.49;70.87
65876;HTU21D;52657;51.128;5.938;2022-08-05T05:21:14;22.33;71.25
65876;HTU21D;52657;51.128;5.938;2022-08-05T05:23:40;22.23;71.68
65876;HTU21D;52657;51.128;5.938;2022-08-05T05:26:06;22.20;72.06
65876;HTU21D;52657;51.128;5.938;2022-08-05T05:28:32;22.21;71.87
65876;HTU21D;52657;51.128;5.938;2022-08-05T05:30:57;22.24;71.76
65876;HTU21D;52657;51.128;5.938;2022-08-05T05:33:24;22.25;71.67
65876;HTU21D;52657;51.128;5.938;2022-08-05T05:35:49;22.24;71.30
65876;HTU21D;52657;51.128;5.938;2022-08-05T05:38:16;22.19;71.45
65876;HTU21D;52657;51.128;5.938;2022-08-05T05:40:42;22.16;71.44
65876;HTU21D;52657;51.128;5.938;2022-08-05T05:43:08;22.13;71.02
65876;HTU21D;52657;51.128;5.938;2022-08-05T05:45:34;22.01;70.88
65876;HTU21D;52657;51.128;5.938;2022-08-05T05:48:00;21.96;71.19
65876;HTU21D;52657;51.128;5.938;2022-08-05T05:50:26;21.97;71.04
65876;HTU21D;52657;51.128;5.938;2022-08-05T05:52:52;21.98;70.97
65876;HTU21D;52657;51.128;5.938;2022-08-05T05:55:18;22.02;70.74
65876;HTU21D;52657;51.128;5.938;2022-08-05T05:57:46;22.03;71.10
65876;HTU21D;52657;51.128;5.938;2022-08-05T06:00:15;22.07;71.13
65876;HTU21D;52657;51.128;5.938;2022-08-05T06:02:41;22.08;70.45
65876;HTU21D;52657;51.128;5.938;2022-08-05T06:05:08;22.07;70.07
65876;HTU21D;52657;51.128;5.938;2022-08-05T06:07:34;21.96;69.15
65876;HTU21D;52657;51.128;5.938;2022-08-05T06:10:01;21.72;69.76
65876;HTU21D;52657;51.128;5.938;2022-08-05T06:12:27;21.64;69.86
65876;HTU21D;52657;51.128;5.938;2022-08-05T06:14:53;21.69;69.26
65876;HTU21D;52657;51.128;5.938;2022-08-05T06:17:18;21.49;69.84
65876;HTU21D;52657;51.128;5.938;2022-08-05T06:19:44;21.46;69.95
65876;HTU21D;52657;51.128;5.938;2022-08-05T06:22:10;21.39;70.45
65876;HTU21D;52657;51.128;5.938;2022-08-05T06:24:40;21.43;70.64
65876;HTU21D;52657;51.128;5.938;2022-08-05T06:27:06;21.48;70.34
65876;HTU21D;52657;51.128;5.938;2022-08-05T06:29:32;21.47;69.99
65876;HTU21D;52657;51.128;5.938;2022-08-05T06:31:58;21.49;69.90
65876;HTU21D;52657;51.128;5.938;2022-08-05T06:34:25;21.44;69.55
65876;HTU21D;52657;51.128;5.938;2022-08-05T06:36:51;21.42;69.69
65876;HTU21D;52657;51.128;5.938;2022-08-05T06:39:16;21.31;69.61
65876;HTU21D;52657;51.128;5.938;2022-08-05T06:41:43;21.20;69.56
65876;HTU21D;52657;51.128;5.938;2022-08-05T06:44:11;21.19;69.89
65876;HTU21D;52657;51.128;5.938;2022-08-05T06:46:37;21.21;69.58
65876;HTU21D;52657;51.128;5.938;2022-08-05T06:49:02;21.16;69.30
65876;HTU21D;52657;51.128;5.938;2022-08-05T06:51:29;21.15;69.45
65876;HTU21D;52657;51.128;5.938;2022-08-05T06:53:59;21.09;68.96
65876;HTU21D;52657;51.128;5.938;2022-08-05T06:56:26;20.99;69.42
65876;HTU21D;52657;51.128;5.938;2022-08-05T06:58:51;20.96;69.33
65876;HTU21D;52657;51.128;5.938;2022-08-05T07:01:17;20.99;69.38
65876;HTU21D;52657;51.128;5.938;2022-08-05T07:03:43;20.86;69.68
65876;HTU21D;52657;51.128;5.938;2022-08-05T07:06:09;20.85;69.94
65876;HTU21D;52657;51.128;5.938;2022-08-05T07:08:34;20.81;69.96
65876;HTU21D;52657;51.128;5.938;2022-08-05T07:11:00;20.88;69.77
65876;HTU21D;52657;51.128;5.938;2022-08-05T07:13:25;20.88;69.40
65876;HTU21D;52657;51.128;5.938;2022-08-05T07:16:10;20.90;69.42
65876;HTU21D;52657;51.128;5.938;2022-08-05T07:18:55;20.86;69.61
65876;HTU21D;52657;51.128;5.938;2022-08-05T07:21:21;20.80;69.76
65876;HTU21D;52657;51.128;5.938;2022-08-05T07:23:47;20.84;69.84
65876;HTU21D;52657;51.128;5.938;2022-08-05T07:26:12;20.80;70.03
65876;HTU21D;52657;51.128;5.938;2022-08-05T07:28:38;20.89;69.81
65876;HTU21D;52657;51.128;5.938;2022-08-05T07:31:06;20.95;69.71
65876;HTU21D;52657;51.128;5.938;2022-08-05T07:33:32;20.99;69.23
65876;HTU21D;52657;51.128;5.938;2022-08-05T07:35:58;20.92;69.39
65876;HTU21D;52657;51.128;5.938;2022-08-05T07:38:25;20.91;69.58
65876;HTU21D;52657;51.128;5.938;2022-08-05T07:40:51;20.94;69.63
65876;HTU21D;52657;51.128;5.938;2022-08-05T07:43:16;20.98;69.61
65876;HTU21D;52657;51.128;5.938;2022-08-05T07:45:42;20.96;69.72
65876;HTU21D;52657;51.128;5.938;2022-08-05T07:48:09;21.04;70.21
65876;HTU21D;52657;51.128;5.938;2022-08-05T07:50:36;21.10;70.10
65876;HTU21D;52657;51.128;5.938;2022-08-05T07:53:01;21.14;70.26
65876;HTU21D;52657;51.128;5.938;2022-08-05T07:55:27;21.23;70.42
65876;HTU21D;52657;51.128;5.938;2022-08-05T07:57:53;21.34;69.81
65876;HTU21D;52657;51.128;5.938;2022-08-05T08:00:20;21.32;69.52
65876;HTU21D;52657;51.128;5.938;2022-08-05T08:02:46;21.34;69.71
65876;HTU21D;52657;51.128;5.938;2022-08-05T08:05:12;21.45;69.75
65876;HTU21D;52657;51.128;5.938;2022-08-05T08:07:37;21.62;69.80
65876;HTU21D;52657;51.128;5.938;2022-08-05T08:10:03;21.72;69.20
65876;HTU21D;52657;51.128;5.938;2022-08-05T08:12:29;21.73;69.47
65876;HTU21D;52657;51.128;5.938;2022-08-05T08:14:55;21.94;68.97
65876;HTU21D;52657;51.128;5.938;2022-08-05T08:17:21;21.99;69.01
65876;HTU21D;52657;51.128;5.938;2022-08-05T08:19:47;22.10;68.79
65876;HTU21D;52657;51.128;5.938;2022-08-05T08:22:14;22.22;68.17
65876;HTU21D;52657;51.128;5.938;2022-08-05T08:24:40;22.34;68.10
65876;HTU21D;52657;51.128;5.938;2022-08-05T08:27:06;22.47;67.81
65876;HTU21D;52657;51.128;5.938;2022-08-05T08:29:31;22.58;67.59
65876;HTU21D;52657;51.128;5.938;2022-08-05T08:31:57;22.76;66.86
65876;HTU21D;52657;51.128;5.938;2022-08-05T08:34:25;22.83;66.20
65876;HTU21D;52657;51.128;5.938;2022-08-05T08:36:51;22.93;65.56
65876;HTU21D;52657;51.128;5.938;2022-08-05T08:39:17;23.06;65.11
65876;HTU21D;52657;51.128;5.938;2022-08-05T08:41:46;23.29;64.44
65876;HTU21D;52657;51.128;5.938;2022-08-05T08:44:18;23.51;63.25
65876;HTU21D;52657;51.128;5.938;2022-08-05T08:46:46;23.50;62.82
65876;HTU21D;52657;51.128;5.938;2022-08-05T08:49:14;23.37;62.84
65876;HTU21D;52657;51.128;5.938;2022-08-05T08:51:46;23.34;62.91
65876;HTU21D;52657;51.128;5.938;2022-08-05T08:54:14;23.41;63.37
65876;HTU21D;52657;51.128;5.938;2022-08-05T08:56:41;23.57;63.22
65876;HTU21D;52657;51.128;5.938;2022-08-05T08:59:06;23.69;62.46
65876;HTU21D;52657;51.128;5.938;2022-08-05T09:01:32;23.74;62.13
65876;HTU21D;52657;51.128;5.938;2022-08-05T09:03:58;23.79;61.67
65876;HTU21D;52657;51.128;5.938;2022-08-05T09:06:29;23.81;61.77
65876;HTU21D;52657;51.128;5.938;2022-08-05T09:08:58;23.81;61.47
65876;HTU21D;52657;51.128;5.938;2022-08-05T09:11:26;23.73;61.31
65876;HTU21D;52657;51.128;5.938;2022-08-05T09:13:53;23.67;61.52
65876;HTU21D;52657;51.128;5.938;2022-08-05T09:16:20;23.60;61.93
65876;HTU21D;52657;51.128;5.938;2022-08-05T09:18:46;23.61;62.02
65876;HTU21D;52657;51.128;5.938;2022-08-05T09:21:13;23.70;61.74
65876;HTU21D;52657;51.128;5.938;2022-08-05T09:23:39;23.72;60.86
65876;HTU21D;52657;51.128;5.938;2022-08-05T09:26:13;23.59;60.61
65876;HTU21D;52657;51.128;5.938;2022-08-05T09:28:46;23.59;61.17
65876;HTU21D;52657;51.128;5.938;2022-08-05T09:31:14;23.60;60.96
65876;HTU21D;52657;51.128;5.938;2022-08-05T09:33:51;23.64;61.34
65876;HTU21D;52657;51.128;5.938;2022-08-05T09:36:18;23.66;61.09
65876;HTU21D;52657;51.128;5.938;2022-08-05T09:39:03;23.70;60.49
65876;HTU21D;52657;51.128;5.938;2022-08-05T09:41:29;23.65;60.46
65876;HTU21D;52657;51.128;5.938;2022-08-05T09:43:55;23.71;61.18
65876;HTU21D;52657;51.128;5.938;2022-08-05T09:46:26;23.83;61.73
65876;HTU21D;52657;51.128;5.938;2022-08-05T09:48:53;23.99;61.21
65876;HTU21D;52657;51.128;5.938;2022-08-05T09:51:35;24.17;61.00
65876;HTU21D;52657;51.128;5.938;2022-08-05T09:54:04;24.40;60.33
65876;HTU21D;52657;51.128;5.938;2022-08-05T09:56:37;24.54;59.10
65876;HTU21D;52657;51.128;5.938;2022-08-05T09:59:04;24.59;58.57
65876;HTU21D;52657;51.128;5.938;2022-08-05T10:01:32;24.79;58.25
65876;HTU21D;52657;51.128;5.938;2022-08-05T10:04:04;24.93;58.22
65876;HTU21D;52657;51.128;5.938;2022-08-05T10:06:31;25.08;57.03
65876;HTU21D;52657;51.128;5.938;2022-08-05T10:09:16;25.13;57.46
65876;HTU21D;52657;51.128;5.938;2022-08-05T10:11:44;25.30;57.71
65876;HTU21D;52657;51.128;5.938;2022-08-05T10:14:24;25.44;57.12
65876;HTU21D;52657;51.128;5.938;2022-08-05T10:16:51;25.54;56.24
65876;HTU21D;52657;51.128;5.938;2022-08-05T10:19:22;25.57;56.04
65876;HTU21D;52657;51.128;5.938;2022-08-05T10:21:47;25.57;56.53
65876;HTU21D;52657;51.128;5.938;2022-08-05T10:24:16;25.49;54.97
65876;HTU21D;52657;51.128;5.938;2022-08-05T10:26:44;25.24;55.08
65876;HTU21D;52657;51.128;5.938;2022-08-05T10:29:11;25.12;55.33
65876;HTU21D;52657;51.128;5.938;2022-08-05T10:31:37;25.03;55.98
65876;HTU21D;52657;51.128;5.938;2022-08-05T10:34:09;24.94;55.78
65876;HTU21D;52657;51.128;5.938;2022-08-05T10:36:37;24.88;55.51
65876;HTU21D;52657;51.128;5.938;2022-08-05T10:39:10;24.69;56.20
65876;HTU21D;52657;51.128;5.938;2022-08-05T10:41:50;24.57;57.22
65876;HTU21D;52657;51.128;5.938;2022-08-05T10:44:19;24.60;56.89
65876;HTU21D;52657;51.128;5.938;2022-08-05T10:46:54;24.64;56.77
65876;HTU21D;52657;51.128;5.938;2022-08-05T10:49:23;24.63;57.15
65876;HTU21D;52657;51.128;5.938;2022-08-05T10:51:53;24.62;57.63
65876;HTU21D;52657;51.128;5.938;2022-08-05T10:54:24;24.68;57.38
65876;HTU21D;52657;51.128;5.938;2022-08-05T10:56:52;24.69;56.31
65876;HTU21D;52657;51.128;5.938;2022-08-05T10:59:27;24.56;56.90
65876;HTU21D;52657;51.128;5.938;2022-08-05T11:02:11;24.64;57.40
65876;HTU21D;52657;51.128;5.938;2022-08-05T11:04:54;24.97;57.08
65876;HTU21D;52657;51.128;5.938;2022-08-05T11:07:23;25.34;56.28
65876;HTU21D;52657;51.128;5.938;2022-08-05T11:09:50;25.60;55.12
65876;HTU21D;52657;51.128;5.938;2022-08-05T11:12:40;25.76;53.98
65876;HTU21D;52657;51.128;5.938;2022-08-05T11:17:54;25.96;53.38
65876;HTU21D;52657;51.128;5.938;2022-08-05T11:22:59;26.08;52.53
65876;HTU21D;52657;51.128;5.938;2022-08-05T11:25:38;26.21;51.12
65876;HTU21D;52657;51.128;5.938;2022-08-05T11:33:33;26.12;50.44
65876;HTU21D;52657;51.128;5.938;2022-08-05T11:36:10;25.96;50.79
65876;HTU21D;52657;51.128;5.938;2022-08-05T11:41:16;25.94;52.39
65876;HTU21D;52657;51.128;5.938;2022-08-05T11:44:03;26.08;50.50
65876;HTU21D;52657;51.128;5.938;2022-08-05T11:46:52;26.26;49.69
65876;HTU21D;52657;51.128;5.938;2022-08-05T11:49:20;26.32;49.34
65876;HTU21D;52657;51.128;5.938;2022-08-05T11:51:49;26.40;48.60
65876;HTU21D;52657;51.128;5.938;2022-08-05T11:54:27;26.31;48.41
65876;HTU21D;52657;51.128;5.938;2022-08-05T11:56:55;26.32;48.50
65876;HTU21D;52657;51.128;5.938;2022-08-05T11:59:27;26.34;48.37
65876;HTU21D;52657;51.128;5.938;2022-08-05T12:01:58;26.26;48.70
65876;HTU21D;52657;51.128;5.938;2022-08-05T12:04:26;25.97;50.81
65876;HTU21D;52657;51.128;5.938;2022-08-05T12:06:53;25.81;53.49
65876;HTU21D;52657;51.128;5.938;2022-08-05T12:09:23;25.80;54.71
65876;HTU21D;52657;51.128;5.938;2022-08-05T12:11:51;25.71;55.10
65876;HTU21D;52657;51.128;5.938;2022-08-05T12:14:17;25.53;55.49
65876;HTU21D;52657;51.128;5.938;2022-08-05T12:16:44;25.32;55.45
65876;HTU21D;52657;51.128;5.938;2022-08-05T12:19:12;25.24;56.25
65876;HTU21D;52657;51.128;5.938;2022-08-05T12:21:47;25.24;56.64
65876;HTU21D;52657;51.128;5.938;2022-08-05T12:24:19;25.24;57.18
65876;HTU21D;52657;51.128;5.938;2022-08-05T12:26:46;25.34;56.03
65876;HTU21D;52657;51.128;5.938;2022-08-05T12:29:18;25.21;55.16
65876;HTU21D;52657;51.128;5.938;2022-08-05T12:31:52;25.20;54.24
65876;HTU21D;52657;51.128;5.938;2022-08-05T12:34:23;25.29;52.87
65876;HTU21D;52657;51.128;5.938;2022-08-05T12:36:52;25.43;51.30
65876;HTU21D;52657;51.128;5.938;2022-08-05T12:39:18;25.47;52.06
65876;HTU21D;52657;51.128;5.938;2022-08-05T12:41:44;25.68;51.70
65876;HTU21D;52657;51.128;5.938;2022-08-05T12:44:12;25.73;50.51
65876;HTU21D;52657;51.128;5.938;2022-08-05T12:46:40;25.76;50.73
65876;HTU21D;52657;51.128;5.938;2022-08-05T12:49:11;25.75;50.62
65876;HTU21D;52657;51.128;5.938;2022-08-05T12:51:56;25.79;50.88
65876;HTU21D;52657;51.128;5.938;2022-08-05T12:54:28;25.88;50.16
65876;HTU21D;52657;51.128;5.938;2022-08-05T12:56:59;25.92;50.15
65876;HTU21D;52657;51.128;5.938;2022-08-05T12:59:31;26.08;49.04
65876;HTU21D;52657;51.128;5.938;2022-08-05T13:02:02;26.16;47.38
65876;HTU21D;52657;51.128;5.938;2022-08-05T13:04:40;26.06;47.69
65876;HTU21D;52657;51.128;5.938;2022-08-05T13:07:08;26.13;46.89
65876;HTU21D;52657;51.128;5.938;2022-08-05T13:09:39;26.06;46.47
65876;HTU21D;52657;51.128;5.938;2022-08-05T13:12:05;26.05;47.00
65876;HTU21D;52657;51.128;5.938;2022-08-05T13:14:47;26.18;45.46
65876;HTU21D;52657;51.128;5.938;2022-08-05T13:17:21;26.21;45.33
65876;HTU21D;52657;51.128;5.938;2022-08-05T13:20:03;26.31;43.61
65876;HTU21D;52657;51.128;5.938;2022-08-05T13:22:32;26.22;42.97
65876;HTU21D;52657;51.128;5.938;2022-08-05T13:25:00;26.17;40.55
65876;HTU21D;52657;51.128;5.938;2022-08-05T13:27:29;26.20;40.88
65876;HTU21D;52657;51.128;5.938;2022-08-05T13:29:55;26.33;40.87
65876;HTU21D;52657;51.128;5.938;2022-08-05T13:32:22;26.34;41.27
65876;HTU21D;52657;51.128;5.938;2022-08-05T13:34:48;26.61;41.65
65876;HTU21D;52657;51.128;5.938;2022-08-05T13:37:19;26.80;40.31
65876;HTU21D;52657;51.128;5.938;2022-08-05T13:39:50;26.91;38.49
65876;HTU21D;52657;51.128;5.938;2022-08-05T13:42:19;26.96;37.79
65876;HTU21D;52657;51.128;5.938;2022-08-05T13:44:45;26.95;37.74
65876;HTU21D;52657;51.128;5.938;2022-08-05T13:47:15;26.99;37.15
65876;HTU21D;52657;51.128;5.938;2022-08-05T13:49:41;27.00;37.02
65876;HTU21D;52657;51.128;5.938;2022-08-05T13:52:25;26.98;36.76
65876;HTU21D;52657;51.128;5.938;2022-08-05T13:54:52;26.95;36.38
65876;HTU21D;52657;51.128;5.938;2022-08-05T13:57:19;26.97;36.41
65876;HTU21D;52657;51.128;5.938;2022-08-05T13:59:45;26.94;37.17
65876;HTU21D;52657;51.128;5.938;2022-08-05T14:02:12;27.00;37.10
65876;HTU21D;52657;51.128;5.938;2022-08-05T14:04:40;27.04;37.47
65876;HTU21D;52657;51.128;5.938;2022-08-05T14:07:30;27.16;37.95
65876;HTU21D;52657;51.128;5.938;2022-08-05T14:09:57;27.32;36.57
65876;HTU21D;52657;51.128;5.938;2022-08-05T14:12:23;27.20;36.64
65876;HTU21D;52657;51.128;5.938;2022-08-05T14:14:49;27.34;37.06
65876;HTU21D;52657;51.128;5.938;2022-08-05T14:17:16;27.47;36.72
65876;HTU21D;52657;51.128;5.938;2022-08-05T14:19:43;27.54;36.37
65876;HTU21D;52657;51.128;5.938;2022-08-05T14:22:09;27.63;36.36
65876;HTU21D;52657;51.128;5.938;2022-08-05T14:24:35;27.46;36.76
65876;HTU21D;52657;51.128;5.938;2022-08-05T14:27:03;27.38;37.42
65876;HTU21D;52657;51.128;5.938;2022-08-05T14:29:28;27.36;37.88
65876;HTU21D;52657;51.128;5.938;2022-08-05T14:31:55;27.44;37.56
65876;HTU21D;52657;51.128;5.938;2022-08-05T14:34:20;27.36;37.56
65876;HTU21D;52657;51.128;5.938;2022-08-05T14:36:46;27.30;37.01
65876;HTU21D;52657;51.128;5.938;2022-08-05T14:39:12;27.16;37.23
65876;HTU21D;52657;51.128;5.938;2022-08-05T14:41:38;27.02;37.82
65876;HTU21D;52657;51.128;5.938;2022-08-05T14:44:04;27.11;37.96
65876;HTU21D;52657;51.128;5.938;2022-08-05T14:46:30;27.16;37.82
65876;HTU21D;52657;51.128;5.938;2022-08-05T14:48:58;27.27;37.03
65876;HTU21D;52657;51.128;5.938;2022-08-05T14:51:24;27.32;36.21
65876;HTU21D;52657;51.128;5.938;2022-08-05T14:53:50;27.39;36.64
65876;HTU21D;52657;51.128;5.938;2022-08-05T14:56:16;27.49;36.14
65876;HTU21D;52657;51.128;5.938;2022-08-05T14:58:42;27.38;36.57
65876;HTU21D;52657;51.128;5.938;2022-08-05T15:01:08;27.36;36.95
65876;HTU21D;52657;51.128;5.938;2022-08-05T15:03:34;27.38;36.05
65876;HTU21D;52657;51.128;5.938;2022-08-05T15:06:00;27.40;35.79
65876;HTU21D;52657;51.128;5.938;2022-08-05T15:08:26;27.27;35.42
65876;HTU21D;52657;51.128;5.938;2022-08-05T15:10:51;27.19;34.70
65876;HTU21D;52657;51.128;5.938;2022-08-05T15:13:17;27.10;34.91
65876;HTU21D;52657;51.128;5.938;2022-08-05T15:15:43;27.06;33.25
65876;HTU21D;52657;51.128;5.938;2022-08-05T15:18:09;26.73;34.29
65876;HTU21D;52657;51.128;5.938;2022-08-05T15:20:35;26.63;35.04
65876;HTU21D;52657;51.128;5.938;2022-08-05T15:23:03;26.61;35.36
65876;HTU21D;52657;51.128;5.938;2022-08-05T15:25:29;26.63;34.45
65876;HTU21D;52657;51.128;5.938;2022-08-05T15:27:55;26.50;34.31
65876;HTU21D;52657;51.128;5.938;2022-08-05T15:30:21;26.39;34.34
65876;HTU21D;52657;51.128;5.938;2022-08-05T15:32:46;26.32;34.12
65876;HTU21D;52657;51.128;5.938;2022-08-05T15:35:12;26.20;34.25
65876;HTU21D;52657;51.128;5.938;2022-08-05T15:37:38;26.15;33.89
65876;HTU21D;52657;51.128;5.938;2022-08-05T15:40:05;26.06;34.41